Time;durP1;ratioP1;P1;durP2;ratioP2;P2;SDS_P1;SDS_P2;PMS_P1;PMS_P2;Temp;Humidity;BMP_temperature;BMP_pressure;BME280_temperature;BME280_humidity;BME280_pressure;Samples;Min_cycle;Max_cycle;Signal;HPM_P1;HPM_P2
2023/08/29 00:00:22;;;;;;;6.57;3.20;;;;;;;12.13;100.00;100833.28;5036220;28;20078;-88
2023/08/29 00:02:48;;;;;;;6.80;3.05;;;;;;;12.07;100.00;100841.06;5052945;28;20021;-88
2023/08/29 00:05:14;;;;;;;7.45;3.03;;;;;;;12.07;100.00;100845.63;5054247;28;20029;-88
2023/08/29 00:07:41;;;;;;;8.88;3.55;;;;;;;12.06;100.00;100835.84;5052690;28;20430;-88
2023/08/29 00:10:07;;;;;;;5.55;3.28;;;;;;;12.09;100.00;100841.75;5054002;28;20041;-88
2023/08/29 00:12:33;;;;;;;7.13;3.55;;;;;;;12.07;100.00;100830.28;5036063;28;20033;-88
2023/08/29 00:15:06;;;;;;;7.80;3.33;;;;;;;12.10;100.00;100826.41;5052119;28;20079;-88
2023/08/29 00:17:31;;;;;;;5.63;2.88;;;;;;;12.10;100.00;100835.31;5039437;28;20064;-87
2023/08/29 00:20:01;;;;;;;5.50;3.20;;;;;;;12.06;100.00;100828.59;5039587;28;20088;-88
2023/08/29 00:22:26;;;;;;;6.38;3.38;;;;;;;12.10;100.00;100816.44;5055640;28;20049;-87
2023/08/29 00:24:52;;;;;;;7.25;2.92;;;;;;;12.09;100.00;100820.16;5056953;28;20029;-88
2023/08/29 00:27:24;;;;;;;5.82;2.90;;;;;;;12.09;100.00;100820.16;5056790;28;20083;-87
2023/08/29 00:29:50;;;;;;;6.20;3.28;;;;;;;12.10;100.00;100810.22;5057116;28;20025;-88
2023/08/29 00:32:15;;;;;;;7.70;3.00;;;;;;;12.11;100.00;100811.88;5055580;28;20028;-88
2023/08/29 00:34:41;;;;;;;5.50;2.58;;;;;;;12.14;100.00;100807.97;5056358;28;20033;-87
2023/08/29 00:37:07;;;;;;;4.85;2.67;;;;;;;12.13;100.00;100809.00;5038767;28;20064;-87
2023/08/29 00:39:33;;;;;;;5.43;2.67;;;;;;;12.13;100.00;100798.25;5022896;28;20127;-88
2023/08/29 00:41:59;;;;;;;6.95;2.50;;;;;;;12.17;100.00;100797.69;5055785;28;20028;-87
2023/08/29 00:44:25;;;;;;;3.70;2.40;;;;;;;12.18;100.00;100807.44;5055590;28;20120;-87
2023/08/29 00:46:51;;;;;;;6.57;2.38;;;;;;;12.12;100.00;100797.41;5055174;28;20440;-88
2023/08/29 00:49:19;;;;;;;4.18;2.47;;;;;;;12.21;100.00;100815.16;5055497;28;20033;-87
2023/08/29 00:51:45;;;;;;;5.70;2.25;;;;;;;12.20;100.00;100813.50;5038915;28;20025;-87
2023/08/29 00:54:12;;;;;;;4.85;2.20;;;;;;;12.21;100.00;100811.63;5056641;28;20029;-87
2023/08/29 00:56:38;;;;;;;4.00;2.10;;;;;;;12.24;100.00;100808.56;5055329;28;20493;-87
2023/08/29 00:59:04;;;;;;;2.47;1.58;;;;;;;12.20;100.00;100800.00;5056226;28;20512;-87
2023/08/29 01:01:31;;;;;;;3.67;2.00;;;;;;;12.23;100.00;100805.03;5055367;28;20025;-87
2023/08/29 01:03:57;;;;;;;5.05;1.88;;;;;;;12.23;100.00;100810.41;5054822;28;20025;-87
2023/08/29 01:06:24;;;;;;;3.13;1.73;;;;;;;12.21;100.00;100801.66;5055798;28;20486;-88
2023/08/29 01:08:51;;;;;;;3.00;1.83;;;;;;;12.18;100.00;100802.03;5038665;28;20032;-87
2023/08/29 01:11:37;;;;;;;3.22;1.90;;;;;;;12.13;100.00;100793.69;5038406;28;20116;-87
2023/08/29 01:14:08;;;;;;;2.90;1.52;;;;;;;12.16;100.00;100795.16;5072348;28;20029;-87
2023/08/29 01:16:38;;;;;;;3.42;2.17;;;;;;;12.15;100.00;100791.63;5054844;28;20037;-87
2023/08/29 01:19:12;;;;;;;2.65;1.60;;;;;;;12.10;100.00;100789.50;5038398;28;20463;-87
2023/08/29 01:22:11;;;;;;;4.78;1.60;;;;;;;12.15;100.00;100796.19;5054748;28;20037;-87
2023/08/29 01:24:46;;;;;;;2.80;1.10;;;;;;;12.13;100.00;100798.25;5054954;28;20489;-87
2023/08/29 01:27:12;;;;;;;4.57;1.77;;;;;;;12.15;100.00;100801.59;5054129;28;20037;-87
2023/08/29 01:29:39;;;;;;;3.17;1.50;;;;;;;12.15;100.00;100802.41;5055185;28;20040;-86
2023/08/29 01:32:05;;;;;;;2.13;1.45;;;;;;;12.16;100.00;100801.38;5055264;28;20121;-87
2023/08/29 01:34:31;;;;;;;2.63;1.60;;;;;;;12.18;100.00;100799.34;5054867;28;20071;-87
2023/08/29 01:36:57;;;;;;;2.83;1.67;;;;;;;12.24;100.00;100801.28;5021821;28;20491;-87
2023/08/29 01:39:23;;;;;;;4.68;1.58;;;;;;;12.23;100.00;100796.94;5054166;28;20060;-87
2023/08/29 01:41:48;;;;;;;2.05;1.35;;;;;;;12.31;100.00;100796.00;5055656;28;20033;-87
2023/08/29 01:44:16;;;;;;;1.92;1.30;;;;;;;12.36;100.00;100800.81;5054019;28;20025;-87
2023/08/29 01:46:42;;;;;;;1.77;1.25;;;;;;;12.37;100.00;100802.50;5037665;28;20048;-87
2023/08/29 01:49:08;;;;;;;5.32;1.75;;;;;;;12.33;100.00;100807.41;5054147;28;20032;-86
2023/08/29 01:51:33;;;;;;;2.22;1.42;;;;;;;12.34;100.00;100802.91;5054240;28;20029;-87
2023/08/29 01:53:59;;;;;;;2.10;1.30;;;;;;;12.26;100.00;100793.03;5054343;28;20029;-86
2023/08/29 01:56:26;;;;;;;2.83;1.20;;;;;;;12.27;100.00;100797.38;5055397;28;20025;-86
2023/08/29 01:58:54;;;;;;;2.50;1.45;;;;;;;12.30;100.00;100800.56;5054068;28;20037;-86
2023/08/29 02:01:20;;;;;;;3.17;1.35;;;;;;;12.29;100.00;100806.97;5056435;28;20349;-85
2023/08/29 02:03:45;;;;;;;2.47;1.30;;;;;;;12.25;100.00;100796.72;5024021;28;20459;-85
2023/08/29 02:06:11;;;;;;;2.15;1.13;;;;;;;12.24;100.00;100790.50;5057284;28;20115;-85
2023/08/29 02:08:37;;;;;;;2.15;1.30;;;;;;;12.26;100.00;100784.94;5070840;28;20151;-87
2023/08/29 02:11:03;;;;;;;2.50;1.40;;;;;;;12.28;100.00;100794.53;5053584;28;20089;-86
2023/08/29 02:13:29;;;;;;;2.60;1.30;;;;;;;12.25;100.00;100797.59;5037106;28;20119;-86
2023/08/29 02:15:55;;;;;;;2.33;1.33;;;;;;;12.26;100.00;100793.03;5053579;28;20040;-87
2023/08/29 02:18:20;;;;;;;2.58;1.50;;;;;;;12.31;100.00;100801.41;5053805;28;20036;-87
2023/08/29 02:20:46;;;;;;;2.45;1.10;;;;;;;12.30;100.00;100800.56;5036936;28;20032;-87
2023/08/29 02:23:11;;;;;;;3.05;1.27;;;;;;;12.29;100.00;100790.78;5036989;28;20041;-87
2023/08/29 02:25:37;;;;;;;2.10;1.30;;;;;;;12.26;100.00;100790.34;5037041;28;20029;-87
2023/08/29 02:28:03;;;;;;;3.90;1.60;;;;;;;12.28;100.00;100791.81;5053542;28;20028;-86
2023/08/29 02:30:29;;;;;;;4.28;1.73;;;;;;;12.21;100.00;100788.19;5054224;28;20394;-87
2023/08/29 02:32:55;;;;;;;3.45;1.58;;;;;;;12.27;100.00;100789.31;5054412;28;20057;-87
2023/08/29 02:35:21;;;;;;;3.15;1.88;;;;;;;12.30;100.00;100795.19;5053382;28;20064;-87
2023/08/29 02:37:49;;;;;;;3.38;1.50;;;;;;;12.32;100.00;100792.28;5053380;28;20526;-87
2023/08/29 02:40:14;;;;;;;4.03;1.65;;;;;;;12.31;100.00;100790.63;5052737;28;20435;-87
2023/08/29 02:42:40;;;;;;;3.67;1.70;;;;;;;12.31;100.00;100793.31;5052745;28;20060;-87
2023/08/29 02:45:06;;;;;;;3.70;1.63;;;;;;;12.23;100.00;100780.75;5052988;28;20025;-87
2023/08/29 02:47:31;;;;;;;2.63;1.40;;;;;;;12.30;100.00;100797.00;5053038;28;20068;-87
2023/08/29 02:49:57;;;;;;;4.10;1.70;;;;;;;12.29;100.00;100782.69;5053216;28;20356;-87
2023/08/29 02:52:23;;;;;;;4.10;1.98;;;;;;;12.37;100.00;100789.88;5052588;28;20028;-86
2023/08/29 02:54:48;;;;;;;2.08;1.20;;;;;;;12.39;100.00;100789.69;5053032;28;20021;-87
2023/08/29 02:57:14;;;;;;;3.10;1.30;;;;;;;12.39;100.00;100789.69;5053052;28;20375;-87
2023/08/29 02:59:40;;;;;;;1.98;1.20;;;;;;;12.40;100.00;100794.88;5053570;28;20156;-87
2023/08/29 03:02:05;;;;;;;2.58;1.45;;;;;;;12.37;100.00;100800.66;5052315;28;20032;-87
2023/08/29 03:04:31;;;;;;;1.60;1.00;;;;;;;12.37;100.00;100802.50;5036369;28;20120;-87
2023/08/29 03:06:56;;;;;;;1.58;1.10;;;;;;;12.34;100.00;100801.03;5052796;28;20084;-87
2023/08/29 03:09:22;;;;;;;3.28;1.23;;;;;;;12.32;100.00;100798.50;5036004;28;20037;-86
2023/08/29 03:11:48;;;;;;;2.28;1.00;;;;;;;12.28;100.00;100801.78;5053420;28;20037;-87
2023/08/29 03:14:14;;;;;;;2.65;1.13;;;;;;;12.29;100.00;100806.13;5052668;28;20087;-87
2023/08/29 03:16:40;;;;;;;2.47;1.33;;;;;;;12.30;100.00;100811.34;5052284;28;20029;-87
2023/08/29 03:19:05;;;;;;;2.58;1.42;;;;;;;12.34;100.00;100809.13;5036090;28;20111;-86
2023/08/29 03:21:31;;;;;;;4.13;1.60;;;;;;;12.37;100.00;100810.59;5053668;28;20055;-86
2023/08/29 03:23:57;;;;;;;3.13;1.30;;;;;;;12.36;100.00;100811.59;5052268;28;20048;-87
2023/08/29 03:26:22;;;;;;;4.95;1.50;;;;;;;12.33;100.00;100810.13;5052446;28;20025;-86
2023/08/29 03:28:48;;;;;;;3.00;1.77;;;;;;;12.25;100.00;100803.00;5053598;28;20033;-86
2023/08/29 03:31:16;;;;;;;4.38;1.58;;;;;;;12.30;100.00;100810.50;5052333;28;20029;-86
2023/08/29 03:33:43;;;;;;;3.70;1.40;;;;;;;12.25;100.00;100802.13;5052128;28;20475;-87
2023/08/29 03:36:09;;;;;;;4.00;2.00;;;;;;;12.29;100.00;100814.22;5035695;28;20025;-87
2023/08/29 03:38:37;;;;;;;4.60;2.05;;;;;;;12.32;100.00;100808.47;5052448;28;20031;-86
2023/08/29 03:41:05;;;;;;;4.00;1.85;;;;;;;12.35;100.00;100807.25;5052225;28;20416;-87
2023/08/29 03:43:33;;;;;;;4.35;2.15;;;;;;;12.38;100.00;100806.88;5052505;28;20460;-87
2023/08/29 03:46:03;;;;;;;6.03;2.20;;;;;;;12.31;100.00;100796.84;5053744;28;20426;-87
2023/08/29 03:48:30;;;;;;;3.42;1.98;;;;;;;12.29;100.00;100804.28;5035714;28;20029;-87
2023/08/29 03:50:56;;;;;;;5.07;2.30;;;;;;;12.28;100.00;100799.91;5054163;28;20450;-87
2023/08/29 03:53:22;;;;;;;3.33;1.83;;;;;;;12.31;100.00;100801.41;5056159;28;20036;-87
2023/08/29 03:55:48;;;;;;;4.40;2.10;;;;;;;12.31;100.00;100802.22;5057185;28;20025;-86
2023/08/29 03:58:14;;;;;;;3.53;1.80;;;;;;;12.35;100.00;100799.16;5056232;28;20463;-87
2023/08/29 04:00:41;;;;;;;4.10;1.88;;;;;;;12.37;100.00;100795.25;5056034;28;20029;-86
2023/08/29 04:03:06;;;;;;;3.75;1.90;;;;;;;12.37;100.00;100795.25;5056483;28;20033;-87
2023/08/29 04:05:35;;;;;;;4.03;2.05;;;;;;;12.34;100.00;100798.31;5072850;28;20040;-87
2023/08/29 04:08:02;;;;;;;3.97;2.10;;;;;;;12.34;100.00;100801.03;5055694;28;20029;-86
2023/08/29 04:10:28;;;;;;;4.95;1.80;;;;;;;12.36;100.00;100796.28;5056106;28;20047;-87
2023/08/29 04:12:54;;;;;;;3.92;1.92;;;;;;;12.32;100.00;100800.38;5056068;28;20032;-86
2023/08/29 04:15:19;;;;;;;4.90;2.63;;;;;;;12.31;100.00;100799.53;5039341;28;20031;-86
2023/08/29 04:17:45;;;;;;;4.22;1.90;;;;;;;12.29;100.00;100804.28;5039098;28;20072;-87
2023/08/29 04:20:12;;;;;;;4.13;2.28;;;;;;;12.25;100.00;100803.00;5039382;28;20033;-87
2023/08/29 04:22:39;;;;;;;4.55;2.00;;;;;;;12.25;100.00;100800.28;5056021;28;20607;-87
2023/08/29 04:25:08;;;;;;;5.15;2.20;;;;;;;12.27;100.00;100800.91;5039539;28;20436;-86
2023/08/29 04:27:34;;;;;;;3.88;2.08;;;;;;;12.24;100.00;100798.59;5040015;28;20367;-86
2023/08/29 04:30:00;;;;;;;3.58;2.05;;;;;;;12.28;100.00;100808.00;5038972;28;20388;-87
2023/08/29 04:32:26;;;;;;;4.53;2.35;;;;;;;12.30;100.00;100802.41;5055437;28;20032;-87
2023/08/29 04:34:51;;;;;;;3.72;2.03;;;;;;;12.30;100.00;100794.31;5039199;28;20032;-87
2023/08/29 04:37:17;;;;;;;4.57;2.33;;;;;;;12.34;100.00;100798.31;5056502;28;20535;-86
2023/08/29 04:39:44;;;;;;;5.55;2.35;;;;;;;12.32;100.00;100798.50;5022323;28;20063;-87
2023/08/29 04:42:10;;;;;;;4.30;2.20;;;;;;;12.31;100.00;100793.31;5039904;28;20375;-86
2023/08/29 04:44:35;;;;;;;5.47;2.67;;;;;;;12.35;100.00;100809.94;5055751;28;20044;-86
2023/08/29 04:47:01;;;;;;;5.25;2.47;;;;;;;12.32;100.00;100806.59;5056761;28;20429;-86
2023/08/29 04:49:27;;;;;;;5.80;2.75;;;;;;;12.31;100.00;100807.63;5039014;28;20035;-86
2023/08/29 04:51:53;;;;;;;5.97;2.45;;;;;;;12.31;100.00;100804.94;5039166;28;20048;-87
2023/08/29 04:54:19;;;;;;;6.05;2.88;;;;;;;12.30;100.00;100803.28;5055301;28;20410;-87
2023/08/29 04:56:44;;;;;;;5.97;2.60;;;;;;;12.28;100.00;100799.91;5055409;28;20033;-87
2023/08/29 04:59:10;;;;;;;4.13;2.20;;;;;;;12.25;100.00;100802.13;5054854;28;20033;-86
2023/08/29 05:01:36;;;;;;;4.57;2.58;;;;;;;12.28;100.00;100807.19;5054018;28;20021;-87
2023/08/29 05:04:02;;;;;;;6.45;2.55;;;;;;;12.30;100.00;100810.50;5072019;28;20037;-87
2023/08/29 05:06:27;;;;;;;3.97;1.90;;;;;;;12.26;100.00;100810.03;5056364;28;20047;-87
2023/08/29 05:08:53;;;;;;;3.30;1.90;;;;;;;12.27;100.00;100806.31;5071511;28;20522;-87
2023/08/29 05:11:18;;;;;;;5.15;2.35;;;;;;;12.28;100.00;100808.00;5056362;28;20033;-87
2023/08/29 05:13:44;;;;;;;3.22;1.80;;;;;;;12.29;100.00;100804.28;5054901;28;20460;-87
2023/08/29 05:16:10;;;;;;;3.47;1.70;;;;;;;12.27;100.00;100795.53;5037812;28;20036;-87
2023/08/29 05:18:35;;;;;;;4.53;2.17;;;;;;;12.26;100.00;100799.25;5054489;28;20028;-87
2023/08/29 05:21:01;;;;;;;3.40;1.92;;;;;;;12.28;100.00;100807.19;5054405;28;20035;-86
2023/08/29 05:23:26;;;;;;;4.72;2.08;;;;;;;12.23;100.00;100810.41;5021717;28;20041;-87
2023/08/29 05:25:52;;;;;;;3.70;1.90;;;;;;;12.18;100.00;100796.66;5070992;28;20029;-87
2023/08/29 05:28:18;;;;;;;3.42;1.50;;;;;;;12.27;100.00;100810.88;5054533;28;20039;-87
2023/08/29 05:30:44;;;;;;;3.47;1.83;;;;;;;12.26;100.00;100817.28;5054299;28;20025;-88
2023/08/29 05:33:10;;;;;;;4.22;1.58;;;;;;;12.25;100.00;100811.06;5037804;28;20040;-87
2023/08/29 05:35:35;;;;;;;3.50;1.60;;;;;;;12.27;100.00;100817.09;5054302;28;20037;-87
2023/08/29 05:38:01;;;;;;;2.10;1.20;;;;;;;12.26;100.00;100823.53;5054026;28;20082;-87
2023/08/29 05:40:26;;;;;;;2.92;1.33;;;;;;;12.28;100.00;100817.97;5055428;28;20032;-87
2023/08/29 05:42:52;;;;;;;3.25;1.63;;;;;;;12.28;100.00;100829.56;5053981;28;20025;-87
2023/08/29 05:45:18;;;;;;;2.55;1.30;;;;;;;12.25;100.00;100824.56;5070856;28;20039;-87
2023/08/29 05:47:43;;;;;;;3.17;1.15;;;;;;;12.27;100.00;100822.47;5055129;28;20460;-87
2023/08/29 05:50:09;;;;;;;3.95;1.60;;;;;;;12.28;100.00;100818.78;5054409;28;20037;-87
2023/08/29 05:52:34;;;;;;;2.38;1.50;;;;;;;12.29;100.00;100820.44;5055991;28;20040;-87
2023/08/29 05:55:00;;;;;;;2.47;1.40;;;;;;;12.25;100.00;100821.84;5055665;28;20025;-87
2023/08/29 05:57:26;;;;;;;2.80;1.23;;;;;;;12.30;100.00;100822.16;5056535;28;20162;-86
2023/08/29 05:59:53;;;;;;;3.20;1.00;;;;;;;12.31;100.00;100826.50;5054941;28;20033;-87
2023/08/29 06:02:20;;;;;;;1.92;1.42;;;;;;;12.33;100.00;100837.09;5054006;28;20029;-88
2023/08/29 06:04:46;;;;;;;2.17;1.17;;;;;;;12.34;100.00;100837.94;5021147;28;20048;-87
2023/08/29 06:07:12;;;;;;;2.65;1.08;;;;;;;12.36;100.00;100835.88;5053534;28;20033;-88
2023/08/29 06:09:38;;;;;;;3.58;1.38;;;;;;;12.36;100.00;100836.75;5053467;28;20049;-87
2023/08/29 06:12:04;;;;;;;3.58;1.38;;;;;;;12.38;100.00;100831.13;5053355;28;20499;-87
2023/08/29 06:14:31;;;;;;;2.53;1.38;;;;;;;12.38;100.00;100837.38;5054035;28;20423;-88
2023/08/29 06:16:57;;;;;;;2.90;1.42;;;;;;;12.41;100.00;100828.94;5053347;28;20045;-88
2023/08/29 06:19:22;;;;;;;1.92;1.10;;;;;;;12.41;100.00;100828.94;5054455;28;20486;-86
2023/08/29 06:21:48;;;;;;;3.40;1.27;;;;;;;12.43;100.00;100832.25;5053858;28;20143;-87
2023/08/29 06:24:14;;;;;;;3.13;1.20;;;;;;;12.42;100.00;100824.38;5053155;28;20076;-87
2023/08/29 06:26:40;;;;;;;2.58;1.25;;;;;;;12.46;100.00;100833.75;5054728;28;20033;-87
2023/08/29 06:29:06;;;;;;;2.30;1.17;;;;;;;12.47;100.00;100835.44;5036749;28;20068;-86
2023/08/29 06:31:32;;;;;;;4.03;1.20;;;;;;;12.51;100.00;100825.94;5054626;28;20025;-86
2023/08/29 06:33:58;;;;;;;2.47;1.33;;;;;;;12.56;100.00;100818.13;5036400;28;20052;-87
2023/08/29 06:36:23;;;;;;;2.30;1.30;;;;;;;12.59;100.00;100825.81;5053625;28;20104;-86
2023/08/29 06:38:49;;;;;;;1.85;1.30;;;;;;;12.55;100.00;100824.53;5053384;28;20041;-86
2023/08/29 06:41:14;;;;;;;3.03;1.30;;;;;;;12.55;100.00;100829.94;5036933;28;20047;-87
2023/08/29 06:43:40;;;;;;;2.83;1.13;;;;;;;12.58;100.00;100834.97;5036680;28;20116;-87
2023/08/29 06:46:06;;;;;;;2.40;1.20;;;;;;;12.66;100.00;100832.16;5054086;28;20025;-86
2023/08/29 06:48:31;;;;;;;2.15;1.48;;;;;;;12.72;100.00;100828.69;5035931;28;20043;-86
2023/08/29 06:50:57;;;;;;;3.13;1.83;;;;;;;12.74;100.00;100829.34;5052696;28;20021;-86
2023/08/29 06:53:25;;;;;;;3.63;1.48;;;;;;;12.71;100.00;100835.13;5036630;28;20021;-86
2023/08/29 06:55:50;;;;;;;2.53;1.20;;;;;;;12.64;100.00;100836.06;5054411;28;20137;-86
2023/08/29 06:58:16;;;;;;;3.65;1.58;;;;;;;12.55;100.00;100840.72;5052721;28;20120;-89
2023/08/29 07:00:42;;;;;;;2.28;1.25;;;;;;;12.52;100.00;100839.25;5054294;28;20115;-87
2023/08/29 07:03:07;;;;;;;2.33;1.30;;;;;;;12.44;100.00;100839.34;5036667;28;20460;-87
2023/08/29 07:05:33;;;;;;;3.85;1.30;;;;;;;12.45;100.00;100842.88;5036863;28;20041;-88
2023/08/29 07:07:59;;;;;;;2.05;1.10;;;;;;;12.45;100.00;100835.59;5056164;28;20033;-87
2023/08/29 07:10:25;;;;;;;4.03;1.27;;;;;;;12.46;100.00;100836.44;5041601;28;20048;-87
2023/08/29 07:12:54;;;;;;;2.90;1.40;;;;;;;12.53;100.00;100842.78;5052482;28;20029;-87
2023/08/29 07:15:28;;;;;;;3.22;1.40;;;;;;;12.77;100.00;100839.75;5019722;28;20472;-87
2023/08/29 07:17:54;;;;;;;3.45;1.40;;;;;;;13.09;100.00;100840.34;5052896;28;20053;-87
2023/08/29 07:20:19;;;;;;;3.78;1.35;;;;;;;13.35;100.00;100847.09;5052564;28;20089;-88
2023/08/29 07:22:45;;;;;;;4.80;1.50;;;;;;;13.56;100.00;100847.09;5035743;28;20063;-87
2023/08/29 07:25:11;;;;;;;3.40;1.30;;;;;;;13.75;100.00;100837.50;5052924;28;20025;-88
2023/08/29 07:27:43;;;;;;;4.53;1.55;;;;;;;13.92;100.00;100831.81;5052376;28;20041;-88
2023/08/29 07:30:14;;;;;;;5.57;2.20;;;;;;;14.07;100.00;100819.88;5068873;28;20476;-86
2023/08/29 07:32:48;;;;;;;3.25;2.20;;;;;;;14.29;100.00;100831.47;5037577;28;20476;-87
2023/08/29 07:35:16;;;;;;;3.42;1.67;;;;;;;14.44;100.00;100830.50;5036047;28;20025;-87
2023/08/29 07:37:41;;;;;;;2.47;1.50;;;;;;;14.54;100.00;100835.59;5052101;28;20036;-87
2023/08/29 07:40:08;;;;;;;5.45;1.80;;;;;;;14.67;100.00;100841.09;5035761;28;20033;-87
2023/08/29 07:42:34;;;;;;;5.25;1.38;;;;;;;14.83;100.00;100846.16;5053188;28;20025;-86
2023/08/29 07:45:00;;;;;;;3.97;1.63;;;;;;;14.92;100.00;100842.25;5035819;28;20369;-87
2023/08/29 07:47:25;;;;;;;2.97;1.65;;;;;;;15.03;100.00;100848.09;5051688;28;20036;-87
2023/08/29 07:49:54;;;;;;;5.43;1.98;;;;;;;15.06;100.00;100845.84;5034500;28;20033;-87
2023/08/29 07:52:20;;;;;;;4.93;1.80;;;;;;;15.11;100.00;100851.47;5051740;28;20025;-87
2023/08/29 07:54:46;;;;;;;3.53;1.73;;;;;;;15.26;100.00;100847.75;5050347;28;20017;-86
2023/08/29 07:57:14;;;;;;;3.53;1.50;;;;;;;15.42;100.00;100846.53;5049996;28;20075;-86
2023/08/29 07:59:40;;;;;;;5.00;1.90;;;;;;;15.67;100.00;100836.78;5049378;28;20503;-86
2023/08/29 08:02:06;;;;;;;4.88;1.67;;;;;;;16.03;100.00;100840.97;5051889;28;20035;-88
2023/08/29 08:04:32;;;;;;;3.80;1.70;;;;;;;16.29;100.00;100842.81;5033579;28;20035;-91
2023/08/29 08:06:57;;;;;;;4.75;1.90;;;;;;;16.48;100.00;100849.25;5034242;28;20033;-90
2023/08/29 08:09:23;;;;;;;5.75;1.52;;;;;;;16.78;100.00;100849.63;5053875;28;20043;-92
2023/08/29 08:11:49;;;;;;;4.63;2.03;;;;;;;16.88;100.00;100854.59;5053671;28;20035;-92
2023/08/29 08:14:17;;;;;;;3.40;1.40;;;;;;;16.78;100.00;100838.78;5058961;28;20029;-92
2023/08/29 08:16:43;;;;;;;5.40;1.75;;;;;;;16.80;100.00;100849.41;5062296;28;20047;-92
2023/08/29 08:19:10;;;;;;;4.72;1.48;;;;;;;16.90;100.00;100850.59;5044766;28;20072;-91
2023/08/29 08:21:36;;;;;;;5.28;1.75;;;;;;;17.07;100.00;100842.81;5058115;28;20040;-91
2023/08/29 08:24:01;;;;;;;4.20;1.90;;;;;;;17.36;100.00;100856.88;5058174;28;20029;-92
2023/08/29 08:26:27;;;;;;;3.17;2.10;;;;;;;17.66;100.00;100850.81;5056561;28;20447;-92
2023/08/29 08:28:54;;;;;;;5.20;1.90;;;;;;;17.81;100.00;100851.38;5057964;28;20033;-92
2023/08/29 08:31:20;;;;;;;3.20;1.83;;;;;;;17.89;100.00;100848.38;5056084;28;20024;-92
2023/08/29 08:33:46;;;;;;;4.38;1.67;;;;;;;18.04;100.00;100855.34;5058547;28;20029;-92
2023/08/29 08:36:11;;;;;;;4.70;1.67;;;;;;;18.14;100.00;100859.22;5039970;28;20028;-93
2023/08/29 08:38:37;;;;;;;5.15;1.80;;;;;;;17.96;100.00;100857.28;5059423;28;20025;-92
2023/08/29 08:41:03;;;;;;;3.33;1.50;;;;;;;18.04;100.00;100853.47;5076863;28;20103;-92
2023/08/29 08:43:30;;;;;;;6.85;1.75;;;;;;;18.24;100.00;100859.56;5058955;28;20493;-92
2023/08/29 08:45:56;;;;;;;5.20;2.03;;;;;;;18.42;100.00;100864.22;5042302;28;20150;-91
2023/08/29 08:48:21;;;;;;;6.03;1.60;;;;;;;18.70;100.00;100862.84;5040708;28;20029;-93
2023/08/29 08:50:49;;;;;;;7.65;2.33;;;;;;;18.62;100.00;100871.31;5058460;28;20025;-91
2023/08/29 08:53:15;;;;;;;5.65;1.70;;;;;;;18.64;100.00;100869.22;5057590;28;20033;-92
2023/08/29 08:55:41;;;;;;;7.80;1.80;;;;;;;18.77;100.00;100869.09;5024850;28;20040;-91
2023/08/29 08:58:06;;;;;;;3.45;1.17;;;;;;;18.87;100.00;100863.94;5057566;28;20028;-92
2023/08/29 09:00:32;;;;;;;9.30;2.50;;;;;;;19.08;100.00;100862.63;5056644;28;20352;-92
2023/08/29 09:02:58;;;;;;;7.97;2.13;;;;;;;19.42;100.00;100859.44;5056795;28;20021;-92
2023/08/29 09:05:24;;;;;;;8.63;1.85;;;;;;;20.16;100.00;100857.25;5056389;28;20029;-91
2023/08/29 09:07:49;;;;;;;4.47;1.80;;;;;;;20.05;100.00;100847.97;5073925;28;20029;-90
2023/08/29 09:10:16;;;;;;;6.05;1.88;;;;;;;19.97;100.00;100851.06;5056456;28;20028;-89
2023/08/29 09:12:47;;;;;;;5.85;1.77;;;;;;;19.74;100.00;100849.97;5060447;28;20035;-89
2023/08/29 09:15:16;;;;;;;7.90;1.95;;;;;;;19.40;100.00;100850.69;5054527;28;20079;-87
2023/08/29 09:17:49;;;;;;;7.93;3.00;;;;;;;19.09;100.00;100860.75;5066040;28;20094;-89
2023/08/29 09:20:15;;;;;;;6.93;2.13;;;;;;;18.36;100.00;100846.03;5065225;28;20519;-88
2023/08/29 09:22:42;;;;;;;7.93;2.33;;;;;;;18.54;100.00;100836.22;5061680;28;20033;-88
2023/08/29 09:25:08;;;;;;;8.07;1.90;;;;;;;18.84;100.00;100852.66;5038873;28;20082;-88
2023/08/29 09:27:45;;;;;;;6.68;2.30;;;;;;;18.08;100.00;100845.72;5055678;28;20033;-88
2023/08/29 09:30:18;;;;;;;6.18;2.33;;;;;;;18.29;100.00;100855.34;5058320;28;20103;-89
2023/08/29 09:32:51;;;;;;;5.35;1.90;;;;;;;19.72;100.00;100854.00;5043393;28;20471;-88
2023/08/29 09:35:24;;;;;;;9.07;2.45;;;;;;;19.61;100.00;100858.34;5043219;28;20063;-88
2023/08/29 09:37:53;;;;;;;8.02;2.20;;;;;;;19.92;100.00;100859.13;5040813;28;20475;-88
2023/08/29 09:40:23;;;;;;;12.07;2.92;;;;;;;20.25;100.00;100844.09;5059087;28;20032;-90
2023/08/29 09:43:07;;;;;;;8.57;2.58;;;;;;;20.47;100.00;100844.28;5042614;28;20040;-89
2023/08/29 09:45:33;;;;;;;11.52;2.60;;;;;;;20.62;100.00;100858.31;5058284;28;20024;-88
2023/08/29 09:48:03;;;;;;;8.43;2.72;;;;;;;20.82;100.00;100849.72;5060532;28;20025;-91
2023/08/29 09:50:30;;;;;;;8.18;2.03;;;;;;;20.99;100.00;100841.59;5061734;28;20028;-90
2023/08/29 09:52:56;;;;;;;7.50;2.13;;;;;;;20.67;100.00;100860.31;5063134;28;20033;-89
2023/08/29 09:55:23;;;;;;;9.13;3.40;;;;;;;20.59;100.00;100859.63;5061501;28;20029;-88
2023/08/29 09:57:51;;;;;;;8.77;2.00;;;;;;;20.45;100.00;100846.44;5059455;28;20060;-88
2023/08/29 10:00:19;;;;;;;7.65;1.98;;;;;;;20.88;100.00;100851.50;5044456;28;20218;-88
2023/08/29 10:02:46;;;;;;;7.40;2.20;;;;;;;20.91;100.00;100850.19;5061187;28;20527;-88
2023/08/29 10:05:23;;;;;;;7.15;2.45;;;;;;;21.03;100.00;100850.97;5027823;28;20385;-90
2023/08/29 10:07:51;;;;;;;10.00;2.80;;;;;;;21.02;100.00;100852.88;5046902;28;20025;-89
2023/08/29 10:10:18;;;;;;;8.80;2.67;;;;;;;21.39;100.00;100848.97;5044170;28;20032;-90
2023/08/29 10:12:45;;;;;;;8.15;2.20;;;;;;;21.65;100.00;100858.47;5044106;28;20068;-91
2023/08/29 10:15:11;;;;;;;8.68;2.08;;;;;;;20.55;100.00;100860.34;5065411;28;20048;-89
2023/08/29 10:17:37;;;;;;;9.70;2.45;;;;;;;20.57;100.00;100866.41;5069523;28;20088;-90
2023/08/29 10:20:12;;;;;;;8.60;2.30;;;;;;;19.44;100.00;100862.78;5048024;28;20029;-90
2023/08/29 10:22:40;;;;;;;7.65;2.10;;;;;;;19.39;100.00;100870.81;5071165;28;20028;-93
2023/08/29 10:25:05;;;;;;;10.55;2.53;;;;;;;19.73;100.00;100853.75;5053873;28;20116;-87
2023/08/29 10:27:37;;;;;;;8.63;2.38;;;;;;;19.85;100.00;100858.41;5073141;28;20028;-92
2023/08/29 10:30:05;;;;;;;11.75;2.50;;;;;;;20.19;100.00;100848.56;5087220;28;20033;-91
2023/08/29 10:32:33;;;;;;;11.90;2.42;;;;;;;20.37;100.00;100844.88;5067582;28;20429;-92
2023/08/29 10:34:59;;;;;;;9.30;1.95;;;;;;;20.04;100.00;100850.97;5064801;28;20091;-91
2023/08/29 10:37:28;;;;;;;9.30;2.78;;;;;;;19.87;100.00;100850.81;5064634;28;20037;-90
2023/08/29 10:40:11;;;;;;;10.23;2.65;;;;;;;20.07;100.00;100840.38;5047504;28;20395;-90
2023/08/29 10:43:00;;;;;;;11.25;2.58;;;;;;;20.32;100.00;100822.94;5050149;28;20033;-89
2023/08/29 10:45:59;;;;;;;7.63;2.42;;;;;;;20.57;100.00;100836.38;5044570;28;20037;-90
2023/08/29 10:48:46;;;;;;;9.15;2.55;;;;;;;20.84;100.00;100833.91;5045305;28;20033;-90
2023/08/29 10:51:27;;;;;;;8.43;2.75;;;;;;;21.05;99.37;100841.44;5062491;28;20059;-91
2023/08/29 10:54:05;;;;;;;8.93;2.92;;;;;;;21.11;91.98;100839.63;5043509;28;20029;-87
2023/08/29 10:56:49;;;;;;;9.05;2.60;;;;;;;21.24;76.49;100847.56;5064830;28;20067;-89
2023/08/29 10:59:38;;;;;;;7.25;1.90;;;;;;;21.37;61.55;100849.16;5078977;28;20056;-93
2023/08/29 11:02:29;;;;;;;5.03;2.15;;;;;;;21.72;62.27;100840.81;5042676;28;20033;-92
2023/08/29 11:05:04;;;;;;;8.73;2.70;;;;;;;22.06;58.03;100848.16;5066870;28;20028;-87
2023/08/29 11:07:31;;;;;;;9.52;2.70;;;;;;;22.11;58.55;100832.66;5068299;28;20072;-90
2023/08/29 11:10:20;;;;;;;6.43;2.53;;;;;;;21.87;55.94;100848.41;5050833;28;20092;-90
2023/08/29 11:13:08;;;;;;;8.50;2.85;;;;;;;22.07;54.17;100841.59;5059894;28;20025;-92
2023/08/29 11:15:59;;;;;;;6.07;2.50;;;;;;;22.35;51.72;100846.16;5075928;28;20017;-88
2023/08/29 11:18:30;;;;;;;8.95;2.75;;;;;;;21.93;52.83;100843.84;5077836;28;20065;-91